LFLS/GNB METAR and TAF weather

Enter ICAO airport designator
Station Type Date Time Source
LFLS METAR 2021/04/12 02:30 UTC NOAA

LFLS 120230Z AUTO VRB01KT 9999 -RA BKN013 OVC018 03/02 Q1022 TEMPO OVC004


Station Type Date Time Source
LFLS Decoded METAR 2021/04/12 02:30 UTC NOAA

Grenoble / St. Geoirs, France (LFLS) 45-22N 005-20E 386M
Apr 11, 2021 - 10:30 PM EDT / 2021.04.12 0230 UTC
Wind: Variable at 1 MPH (1 KT):0
Visibility: greater than 7 mile(s):0
Sky conditions: overcast
Weather: light rain
Temperature: 37 F (3 C)
Dew Point: 35 F (2 C)
Relative Humidity: 93%
Pressure (altimeter): 30.18 in. Hg (1022 hPa)
ob: LFLS 120230Z AUTO VRB01KT 9999 -RA BKN013 OVC018 03/02 Q1022 TEMPO OVC004
cycle: 2

Station Type Date Time Source
LFLS TAF 2021/04/12 03:26 UTC NOAA

TAF LFLS 120200Z 1203/1303 35010KT 9999 BKN012
TEMPO 1203/1205 VRB03KT -RA OVC007 PROB30
TEMPO 1203/1205 -SNRA OVC004
BECMG 1208/1210 NSC
BECMG 1210/1212 35020KT PROB30
TEMPO 1213/1217 35020G35KT
BECMG 1218/1220 36010KT

Example: see airport list